sensor_id;sensor_type;location;lat;lon;timestamp;P1;durP1;ratioP1;P2;durP2;ratioP2
16436;SDS011;8328;52.206;21.006;2023-03-24T00:00:17;5.50;;;4.47;;
16436;SDS011;8328;52.206;21.006;2023-03-24T00:02:45;6.10;;;4.63;;
16436;SDS011;8328;52.206;21.006;2023-03-24T00:05:20;6.63;;;4.63;;
16436;SDS011;8328;52.206;21.006;2023-03-24T00:07:47;6.33;;;4.70;;
16436;SDS011;8328;52.206;21.006;2023-03-24T00:10:15;7.67;;;4.97;;
16436;SDS011;8328;52.206;21.006;2023-03-24T00:12:44;6.53;;;4.83;;
16436;SDS011;8328;52.206;21.006;2023-03-24T00:15:12;8.47;;;4.67;;
16436;SDS011;8328;52.206;21.006;2023-03-24T00:17:40;7.07;;;4.73;;
16436;SDS011;8328;52.206;21.006;2023-03-24T00:20:07;6.63;;;4.97;;
16436;SDS011;8328;52.206;21.006;2023-03-24T00:22:42;7.23;;;5.10;;
16436;SDS011;8328;52.206;21.006;2023-03-24T00:25:12;8.93;;;5.70;;
16436;SDS011;8328;52.206;21.006;2023-03-24T00:27:39;7.33;;;5.70;;
16436;SDS011;8328;52.206;21.006;2023-03-24T00:30:06;10.63;;;6.10;;
16436;SDS011;8328;52.206;21.006;2023-03-24T00:32:35;7.90;;;5.20;;
16436;SDS011;8328;52.206;21.006;2023-03-24T00:35:06;6.47;;;5.50;;
16436;SDS011;8328;52.206;21.006;2023-03-24T00:37:33;6.63;;;4.77;;
16436;SDS011;8328;52.206;21.006;2023-03-24T00:40:07;9.87;;;5.57;;
16436;SDS011;8328;52.206;21.006;2023-03-24T00:42:40;8.20;;;5.17;;
16436;SDS011;8328;52.206;21.006;2023-03-24T00:45:10;7.70;;;5.37;;
16436;SDS011;8328;52.206;21.006;2023-03-24T00:47:37;7.87;;;5.03;;
16436;SDS011;8328;52.206;21.006;2023-03-24T00:50:04;6.60;;;4.83;;
16436;SDS011;8328;52.206;21.006;2023-03-24T00:52:32;6.73;;;4.97;;
16436;SDS011;8328;52.206;21.006;2023-03-24T00:54:58;7.13;;;5.07;;
16436;SDS011;8328;52.206;21.006;2023-03-24T00:57:26;8.40;;;5.17;;
16436;SDS011;8328;52.206;21.006;2023-03-24T00:59:54;7.50;;;5.33;;
16436;SDS011;8328;52.206;21.006;2023-03-24T01:02:24;6.43;;;4.43;;
16436;SDS011;8328;52.206;21.006;2023-03-24T01:04:55;5.80;;;4.80;;
16436;SDS011;8328;52.206;21.006;2023-03-24T01:07:24;7.97;;;4.70;;
16436;SDS011;8328;52.206;21.006;2023-03-24T01:09:54;7.23;;;4.97;;
16436;SDS011;8328;52.206;21.006;2023-03-24T01:12:26;7.17;;;5.27;;
16436;SDS011;8328;52.206;21.006;2023-03-24T01:14:57;10.50;;;5.57;;
16436;SDS011;8328;52.206;21.006;2023-03-24T01:17:24;7.90;;;5.20;;
16436;SDS011;8328;52.206;21.006;2023-03-24T01:19:51;7.07;;;5.00;;
16436;SDS011;8328;52.206;21.006;2023-03-24T01:22:17;6.60;;;4.67;;
16436;SDS011;8328;52.206;21.006;2023-03-24T01:24:45;6.43;;;4.80;;
16436;SDS011;8328;52.206;21.006;2023-03-24T01:27:14;7.40;;;5.37;;
16436;SDS011;8328;52.206;21.006;2023-03-24T01:29:40;6.93;;;4.80;;
16436;SDS011;8328;52.206;21.006;2023-03-24T01:32:07;8.90;;;5.10;;
16436;SDS011;8328;52.206;21.006;2023-03-24T01:34:33;7.40;;;5.07;;
16436;SDS011;8328;52.206;21.006;2023-03-24T01:37:00;8.07;;;5.17;;
16436;SDS011;8328;52.206;21.006;2023-03-24T01:39:26;7.63;;;4.93;;
16436;SDS011;8328;52.206;21.006;2023-03-24T01:41:52;7.23;;;5.20;;
16436;SDS011;8328;52.206;21.006;2023-03-24T01:44:34;9.77;;;4.93;;
16436;SDS011;8328;52.206;21.006;2023-03-24T01:47:04;6.30;;;4.60;;
16436;SDS011;8328;52.206;21.006;2023-03-24T01:49:33;6.87;;;4.73;;
16436;SDS011;8328;52.206;21.006;2023-03-24T01:52:12;6.20;;;4.70;;
16436;SDS011;8328;52.206;21.006;2023-03-24T01:54:43;8.73;;;4.77;;
16436;SDS011;8328;52.206;21.006;2023-03-24T01:57:14;6.67;;;4.83;;
16436;SDS011;8328;52.206;21.006;2023-03-24T01:59:55;6.33;;;4.80;;
16436;SDS011;8328;52.206;21.006;2023-03-24T02:02:28;9.03;;;5.20;;
16436;SDS011;8328;52.206;21.006;2023-03-24T02:05:01;8.40;;;4.87;;
16436;SDS011;8328;52.206;21.006;2023-03-24T02:08:03;7.97;;;4.70;;
16436;SDS011;8328;52.206;21.006;2023-03-24T02:10:40;5.53;;;4.57;;
16436;SDS011;8328;52.206;21.006;2023-03-24T02:13:08;7.73;;;4.67;;
16436;SDS011;8328;52.206;21.006;2023-03-24T02:15:37;6.90;;;5.10;;
16436;SDS011;8328;52.206;21.006;2023-03-24T02:18:17;6.53;;;4.70;;
16436;SDS011;8328;52.206;21.006;2023-03-24T02:21:17;7.83;;;4.50;;
16436;SDS011;8328;52.206;21.006;2023-03-24T02:26:58;7.57;;;5.30;;
16436;SDS011;8328;52.206;21.006;2023-03-24T02:40:34;7.10;;;4.70;;
16436;SDS011;8328;52.206;21.006;2023-03-24T02:43:13;8.00;;;5.17;;
16436;SDS011;8328;52.206;21.006;2023-03-24T02:45:53;8.57;;;5.20;;
16436;SDS011;8328;52.206;21.006;2023-03-24T02:48:43;7.07;;;5.30;;
16436;SDS011;8328;52.206;21.006;2023-03-24T02:51:16;7.20;;;5.37;;
16436;SDS011;8328;52.206;21.006;2023-03-24T02:53:58;6.23;;;4.70;;
16436;SDS011;8328;52.206;21.006;2023-03-24T02:56:35;6.40;;;5.03;;
16436;SDS011;8328;52.206;21.006;2023-03-24T02:59:21;6.23;;;4.60;;
16436;SDS011;8328;52.206;21.006;2023-03-24T03:02:01;8.27;;;5.20;;
16436;SDS011;8328;52.206;21.006;2023-03-24T03:04:46;6.80;;;5.00;;
16436;SDS011;8328;52.206;21.006;2023-03-24T03:07:17;6.70;;;4.63;;
16436;SDS011;8328;52.206;21.006;2023-03-24T03:09:59;6.17;;;4.90;;
16436;SDS011;8328;52.206;21.006;2023-03-24T03:12:31;5.23;;;4.57;;
16436;SDS011;8328;52.206;21.006;2023-03-24T03:15:00;7.17;;;4.77;;
16436;SDS011;8328;52.206;21.006;2023-03-24T03:17:32;7.37;;;5.03;;
16436;SDS011;8328;52.206;21.006;2023-03-24T03:20:12;6.43;;;5.13;;
16436;SDS011;8328;52.206;21.006;2023-03-24T03:22:49;7.00;;;5.20;;
16436;SDS011;8328;52.206;21.006;2023-03-24T03:25:26;5.83;;;4.70;;
16436;SDS011;8328;52.206;21.006;2023-03-24T03:27:59;7.07;;;4.90;;
16436;SDS011;8328;52.206;21.006;2023-03-24T03:30:30;6.50;;;4.87;;
16436;SDS011;8328;52.206;21.006;2023-03-24T03:33:05;9.43;;;5.00;;
16436;SDS011;8328;52.206;21.006;2023-03-24T03:35:47;7.93;;;5.20;;
16436;SDS011;8328;52.206;21.006;2023-03-24T03:38:18;7.67;;;5.20;;
16436;SDS011;8328;52.206;21.006;2023-03-24T03:41:11;6.43;;;4.40;;
16436;SDS011;8328;52.206;21.006;2023-03-24T03:43:39;7.23;;;5.00;;
16436;SDS011;8328;52.206;21.006;2023-03-24T03:46:05;6.93;;;4.53;;
16436;SDS011;8328;52.206;21.006;2023-03-24T03:48:32;6.13;;;4.60;;
16436;SDS011;8328;52.206;21.006;2023-03-24T03:50:59;9.63;;;4.90;;
16436;SDS011;8328;52.206;21.006;2023-03-24T03:53:39;7.07;;;4.80;;
16436;SDS011;8328;52.206;21.006;2023-03-24T03:56:18;8.63;;;4.90;;
16436;SDS011;8328;52.206;21.006;2023-03-24T03:58:46;9.03;;;5.13;;
16436;SDS011;8328;52.206;21.006;2023-03-24T04:01:15;7.03;;;5.40;;
16436;SDS011;8328;52.206;21.006;2023-03-24T04:03:49;8.43;;;4.90;;
16436;SDS011;8328;52.206;21.006;2023-03-24T04:09:29;7.37;;;4.53;;
16436;SDS011;8328;52.206;21.006;2023-03-24T04:17:49;8.07;;;5.00;;
16436;SDS011;8328;52.206;21.006;2023-03-24T04:20:53;9.70;;;5.30;;
16436;SDS011;8328;52.206;21.006;2023-03-24T04:23:50;7.13;;;5.07;;
16436;SDS011;8328;52.206;21.006;2023-03-24T04:26:52;6.57;;;5.20;;
16436;SDS011;8328;52.206;21.006;2023-03-24T04:29:30;7.03;;;5.00;;
16436;SDS011;8328;52.206;21.006;2023-03-24T04:34:54;7.30;;;5.33;;
16436;SDS011;8328;52.206;21.006;2023-03-24T04:37:32;7.50;;;5.27;;
16436;SDS011;8328;52.206;21.006;2023-03-24T04:40:02;6.93;;;4.97;;
16436;SDS011;8328;52.206;21.006;2023-03-24T04:42:35;7.37;;;5.30;;
16436;SDS011;8328;52.206;21.006;2023-03-24T04:45:05;8.30;;;5.50;;
16436;SDS011;8328;52.206;21.006;2023-03-24T04:47:33;7.27;;;5.03;;
16436;SDS011;8328;52.206;21.006;2023-03-24T04:50:09;8.53;;;5.57;;
16436;SDS011;8328;52.206;21.006;2023-03-24T04:52:40;8.47;;;5.47;;
16436;SDS011;8328;52.206;21.006;2023-03-24T04:55:17;8.97;;;6.07;;
16436;SDS011;8328;52.206;21.006;2023-03-24T04:58:05;7.80;;;5.50;;
16436;SDS011;8328;52.206;21.006;2023-03-24T05:00:31;8.30;;;5.73;;
16436;SDS011;8328;52.206;21.006;2023-03-24T05:02:56;8.90;;;5.70;;
16436;SDS011;8328;52.206;21.006;2023-03-24T05:05:22;6.60;;;5.60;;
16436;SDS011;8328;52.206;21.006;2023-03-24T05:07:48;10.37;;;6.10;;
16436;SDS011;8328;52.206;21.006;2023-03-24T05:10:14;11.70;;;7.43;;
16436;SDS011;8328;52.206;21.006;2023-03-24T05:12:40;8.73;;;6.53;;
16436;SDS011;8328;52.206;21.006;2023-03-24T05:15:06;9.90;;;6.20;;
16436;SDS011;8328;52.206;21.006;2023-03-24T05:17:33;10.67;;;7.20;;
16436;SDS011;8328;52.206;21.006;2023-03-24T05:19:59;8.87;;;6.40;;
16436;SDS011;8328;52.206;21.006;2023-03-24T05:22:25;11.30;;;7.63;;
16436;SDS011;8328;52.206;21.006;2023-03-24T05:24:51;12.37;;;7.70;;
16436;SDS011;8328;52.206;21.006;2023-03-24T05:27:17;14.83;;;8.03;;
16436;SDS011;8328;52.206;21.006;2023-03-24T05:29:42;12.23;;;7.67;;
16436;SDS011;8328;52.206;21.006;2023-03-24T05:32:08;10.20;;;7.50;;
16436;SDS011;8328;52.206;21.006;2023-03-24T05:34:34;12.60;;;8.20;;
16436;SDS011;8328;52.206;21.006;2023-03-24T05:37:00;9.93;;;7.53;;
16436;SDS011;8328;52.206;21.006;2023-03-24T05:39:26;14.10;;;8.07;;
16436;SDS011;8328;52.206;21.006;2023-03-24T05:41:52;11.33;;;8.20;;
16436;SDS011;8328;52.206;21.006;2023-03-24T05:44:17;12.27;;;7.53;;
16436;SDS011;8328;52.206;21.006;2023-03-24T05:46:43;11.03;;;8.53;;
16436;SDS011;8328;52.206;21.006;2023-03-24T05:49:09;13.33;;;8.83;;
16436;SDS011;8328;52.206;21.006;2023-03-24T05:51:35;12.63;;;8.53;;
16436;SDS011;8328;52.206;21.006;2023-03-24T05:54:00;13.07;;;9.03;;
16436;SDS011;8328;52.206;21.006;2023-03-24T05:56:29;13.27;;;8.90;;
16436;SDS011;8328;52.206;21.006;2023-03-24T05:58:56;12.87;;;9.23;;
16436;SDS011;8328;52.206;21.006;2023-03-24T06:01:22;13.23;;;9.07;;
16436;SDS011;8328;52.206;21.006;2023-03-24T06:03:49;13.03;;;8.10;;
16436;SDS011;8328;52.206;21.006;2023-03-24T06:06:15;13.57;;;9.10;;
16436;SDS011;8328;52.206;21.006;2023-03-24T06:08:41;15.00;;;9.33;;
16436;SDS011;8328;52.206;21.006;2023-03-24T06:11:09;13.23;;;9.60;;
16436;SDS011;8328;52.206;21.006;2023-03-24T06:13:36;15.33;;;8.87;;
16436;SDS011;8328;52.206;21.006;2023-03-24T06:16:02;14.90;;;9.47;;
16436;SDS011;8328;52.206;21.006;2023-03-24T06:18:28;15.47;;;8.83;;
16436;SDS011;8328;52.206;21.006;2023-03-24T06:20:58;12.93;;;8.63;;
16436;SDS011;8328;52.206;21.006;2023-03-24T06:23:24;12.13;;;8.80;;
16436;SDS011;8328;52.206;21.006;2023-03-24T06:25:52;13.43;;;8.50;;
16436;SDS011;8328;52.206;21.006;2023-03-24T06:28:20;16.37;;;9.17;;
16436;SDS011;8328;52.206;21.006;2023-03-24T06:30:46;14.10;;;8.87;;
16436;SDS011;8328;52.206;21.006;2023-03-24T06:33:13;12.93;;;8.53;;
16436;SDS011;8328;52.206;21.006;2023-03-24T06:35:40;13.13;;;8.77;;
16436;SDS011;8328;52.206;21.006;2023-03-24T06:38:06;12.37;;;9.20;;
16436;SDS011;8328;52.206;21.006;2023-03-24T06:40:32;14.10;;;8.40;;
16436;SDS011;8328;52.206;21.006;2023-03-24T06:43:00;11.50;;;8.97;;
16436;SDS011;8328;52.206;21.006;2023-03-24T06:45:25;13.23;;;9.20;;
16436;SDS011;8328;52.206;21.006;2023-03-24T06:47:52;12.47;;;8.50;;
16436;SDS011;8328;52.206;21.006;2023-03-24T06:50:21;15.63;;;9.70;;
16436;SDS011;8328;52.206;21.006;2023-03-24T06:52:52;14.33;;;8.67;;
16436;SDS011;8328;52.206;21.006;2023-03-24T06:55:18;12.27;;;8.27;;
16436;SDS011;8328;52.206;21.006;2023-03-24T06:57:46;11.17;;;8.03;;
16436;SDS011;8328;52.206;21.006;2023-03-24T07:00:12;10.80;;;7.77;;
16436;SDS011;8328;52.206;21.006;2023-03-24T07:02:38;12.93;;;8.63;;
16436;SDS011;8328;52.206;21.006;2023-03-24T07:05:04;10.33;;;7.83;;
16436;SDS011;8328;52.206;21.006;2023-03-24T07:10:05;13.67;;;10.30;;
16436;SDS011;8328;52.206;21.006;2023-03-24T07:12:31;11.83;;;8.23;;
16436;SDS011;8328;52.206;21.006;2023-03-24T07:14:58;12.63;;;8.50;;
16436;SDS011;8328;52.206;21.006;2023-03-24T07:17:24;11.90;;;8.20;;
16436;SDS011;8328;52.206;21.006;2023-03-24T07:19:50;13.33;;;8.03;;
16436;SDS011;8328;52.206;21.006;2023-03-24T07:22:16;11.40;;;8.07;;
16436;SDS011;8328;52.206;21.006;2023-03-24T07:24:41;11.77;;;7.97;;
16436;SDS011;8328;52.206;21.006;2023-03-24T07:27:07;14.97;;;9.53;;
16436;SDS011;8328;52.206;21.006;2023-03-24T07:29:33;14.43;;;8.27;;
16436;SDS011;8328;52.206;21.006;2023-03-24T07:32:00;14.50;;;8.70;;
16436;SDS011;8328;52.206;21.006;2023-03-24T07:34:26;10.90;;;7.53;;
16436;SDS011;8328;52.206;21.006;2023-03-24T07:36:52;12.57;;;8.30;;
16436;SDS011;8328;52.206;21.006;2023-03-24T07:39:19;12.10;;;8.30;;
16436;SDS011;8328;52.206;21.006;2023-03-24T07:41:45;11.63;;;7.10;;
16436;SDS011;8328;52.206;21.006;2023-03-24T07:44:11;9.60;;;7.63;;
16436;SDS011;8328;52.206;21.006;2023-03-24T07:46:37;10.20;;;7.90;;
16436;SDS011;8328;52.206;21.006;2023-03-24T07:49:04;11.50;;;7.20;;
16436;SDS011;8328;52.206;21.006;2023-03-24T07:51:30;9.83;;;7.47;;
16436;SDS011;8328;52.206;21.006;2023-03-24T07:53:57;9.90;;;7.57;;
16436;SDS011;8328;52.206;21.006;2023-03-24T07:56:23;13.70;;;8.07;;
16436;SDS011;8328;52.206;21.006;2023-03-24T07:58:49;9.57;;;7.20;;
16436;SDS011;8328;52.206;21.006;2023-03-24T08:01:15;12.47;;;8.50;;
16436;SDS011;8328;52.206;21.006;2023-03-24T08:03:41;12.07;;;7.47;;
16436;SDS011;8328;52.206;21.006;2023-03-24T08:06:07;11.07;;;7.63;;
16436;SDS011;8328;52.206;21.006;2023-03-24T08:08:34;9.40;;;7.50;;
16436;SDS011;8328;52.206;21.006;2023-03-24T08:11:01;11.10;;;7.13;;
16436;SDS011;8328;52.206;21.006;2023-03-24T08:13:28;9.50;;;7.40;;
16436;SDS011;8328;52.206;21.006;2023-03-24T08:15:53;11.97;;;7.50;;
16436;SDS011;8328;52.206;21.006;2023-03-24T08:18:20;13.30;;;9.60;;
16436;SDS011;8328;52.206;21.006;2023-03-24T08:20:47;10.77;;;8.27;;
16436;SDS011;8328;52.206;21.006;2023-03-24T08:23:13;12.37;;;8.50;;
16436;SDS011;8328;52.206;21.006;2023-03-24T08:25:40;16.03;;;11.57;;
16436;SDS011;8328;52.206;21.006;2023-03-24T08:28:06;9.07;;;7.13;;
16436;SDS011;8328;52.206;21.006;2023-03-24T08:30:32;14.93;;;11.27;;
16436;SDS011;8328;52.206;21.006;2023-03-24T08:32:58;13.50;;;9.50;;
16436;SDS011;8328;52.206;21.006;2023-03-24T08:35:33;11.97;;;8.63;;
16436;SDS011;8328;52.206;21.006;2023-03-24T08:38:02;9.00;;;8.07;;
16436;SDS011;8328;52.206;21.006;2023-03-24T08:40:29;12.03;;;8.73;;
16436;SDS011;8328;52.206;21.006;2023-03-24T08:42:59;9.23;;;6.80;;
16436;SDS011;8328;52.206;21.006;2023-03-24T08:45:28;9.53;;;7.10;;
16436;SDS011;8328;52.206;21.006;2023-03-24T08:47:56;9.80;;;8.13;;
16436;SDS011;8328;52.206;21.006;2023-03-24T08:50:24;9.77;;;6.90;;
16436;SDS011;8328;52.206;21.006;2023-03-24T08:52:53;10.73;;;8.93;;
16436;SDS011;8328;52.206;21.006;2023-03-24T08:55:19;10.27;;;6.80;;
16436;SDS011;8328;52.206;21.006;2023-03-24T08:57:47;11.50;;;8.77;;
16436;SDS011;8328;52.206;21.006;2023-03-24T09:00:14;17.20;;;10.30;;
16436;SDS011;8328;52.206;21.006;2023-03-24T09:02:46;9.90;;;7.20;;
16436;SDS011;8328;52.206;21.006;2023-03-24T09:05:16;11.00;;;7.93;;
16436;SDS011;8328;52.206;21.006;2023-03-24T09:07:46;10.30;;;7.50;;
16436;SDS011;8328;52.206;21.006;2023-03-24T09:10:13;10.73;;;7.90;;
16436;SDS011;8328;52.206;21.006;2023-03-24T09:12:40;9.77;;;7.27;;
16436;SDS011;8328;52.206;21.006;2023-03-24T09:15:08;11.27;;;8.60;;
16436;SDS011;8328;52.206;21.006;2023-03-24T09:17:35;10.40;;;7.83;;
16436;SDS011;8328;52.206;21.006;2023-03-24T09:20:02;11.20;;;7.57;;
16436;SDS011;8328;52.206;21.006;2023-03-24T09:22:32;10.13;;;7.17;;
16436;SDS011;8328;52.206;21.006;2023-03-24T09:25:00;9.40;;;6.97;;
16436;SDS011;8328;52.206;21.006;2023-03-24T09:27:28;10.13;;;7.03;;
16436;SDS011;8328;52.206;21.006;2023-03-24T09:29:53;9.40;;;6.40;;
16436;SDS011;8328;52.206;21.006;2023-03-24T09:32:20;10.17;;;6.90;;
16436;SDS011;8328;52.206;21.006;2023-03-24T09:34:46;8.47;;;6.33;;
16436;SDS011;8328;52.206;21.006;2023-03-24T09:37:13;10.03;;;6.87;;
16436;SDS011;8328;52.206;21.006;2023-03-24T09:39:42;8.87;;;6.57;;
16436;SDS011;8328;52.206;21.006;2023-03-24T09:42:10;9.13;;;7.20;;
16436;SDS011;8328;52.206;21.006;2023-03-24T09:44:45;8.17;;;7.00;;
16436;SDS011;8328;52.206;21.006;2023-03-24T09:49:41;8.90;;;6.73;;
16436;SDS011;8328;52.206;21.006;2023-03-24T09:52:09;8.27;;;6.33;;
16436;SDS011;8328;52.206;21.006;2023-03-24T09:54:54;8.07;;;6.60;;
16436;SDS011;8328;52.206;21.006;2023-03-24T09:57:33;7.50;;;5.90;;
16436;SDS011;8328;52.206;21.006;2023-03-24T10:00:26;8.73;;;6.00;;
16436;SDS011;8328;52.206;21.006;2023-03-24T10:03:39;10.33;;;6.30;;
16436;SDS011;8328;52.206;21.006;2023-03-24T10:11:24;7.30;;;6.40;;
16436;SDS011;8328;52.206;21.006;2023-03-24T10:16:49;7.20;;;6.27;;
16436;SDS011;8328;52.206;21.006;2023-03-24T10:22:17;9.07;;;6.23;;
16436;SDS011;8328;52.206;21.006;2023-03-24T10:27:50;8.83;;;6.37;;
16436;SDS011;8328;52.206;21.006;2023-03-24T10:30:22;11.50;;;6.20;;
16436;SDS011;8328;52.206;21.006;2023-03-24T10:32:54;8.33;;;6.03;;
16436;SDS011;8328;52.206;21.006;2023-03-24T10:35:22;8.73;;;6.17;;
16436;SDS011;8328;52.206;21.006;2023-03-24T10:37:52;7.67;;;6.33;;
16436;SDS011;8328;52.206;21.006;2023-03-24T10:40:25;7.53;;;6.50;;
16436;SDS011;8328;52.206;21.006;2023-03-24T10:42:56;10.47;;;6.63;;
16436;SDS011;8328;52.206;21.006;2023-03-24T10:45:43;7.37;;;6.07;;
16436;SDS011;8328;52.206;21.006;2023-03-24T10:48:12;6.87;;;6.03;;
16436;SDS011;8328;52.206;21.006;2023-03-24T10:50:42;7.70;;;6.00;;
16436;SDS011;8328;52.206;21.006;2023-03-24T10:53:19;13.40;;;6.77;;
16436;SDS011;8328;52.206;21.006;2023-03-24T10:55:45;8.50;;;6.50;;
16436;SDS011;8328;52.206;21.006;2023-03-24T10:58:45;8.33;;;6.10;;
16436;SDS011;8328;52.206;21.006;2023-03-24T11:01:18;7.90;;;5.97;;
16436;SDS011;8328;52.206;21.006;2023-03-24T11:03:56;9.07;;;6.27;;
16436;SDS011;8328;52.206;21.006;2023-03-24T11:06:27;8.00;;;6.47;;
16436;SDS011;8328;52.206;21.006;2023-03-24T11:09:07;8.43;;;5.90;;
16436;SDS011;8328;52.206;21.006;2023-03-24T11:11:39;7.33;;;6.50;;
16436;SDS011;8328;52.206;21.006;2023-03-24T11:14:08;10.97;;;6.07;;
16436;SDS011;8328;52.206;21.006;2023-03-24T11:16:49;7.20;;;5.90;;
16436;SDS011;8328;52.206;21.006;2023-03-24T11:19:20;8.97;;;6.20;;
16436;SDS011;8328;52.206;21.006;2023-03-24T11:21:47;8.57;;;6.43;;
16436;SDS011;8328;52.206;21.006;2023-03-24T11:24:17;7.93;;;6.10;;
16436;SDS011;8328;52.206;21.006;2023-03-24T11:27:05;7.27;;;6.13;;
16436;SDS011;8328;52.206;21.006;2023-03-24T11:29:37;8.73;;;6.30;;
16436;SDS011;8328;52.206;21.006;2023-03-24T11:32:09;9.20;;;6.73;;
16436;SDS011;8328;52.206;21.006;2023-03-24T11:34:39;10.03;;;6.60;;
16436;SDS011;8328;52.206;21.006;2023-03-24T11:37:17;9.07;;;7.17;;
16436;SDS011;8328;52.206;21.006;2023-03-24T11:42:51;7.87;;;6.90;;
16436;SDS011;8328;52.206;21.006;2023-03-24T11:48:21;8.00;;;6.87;;
16436;SDS011;8328;52.206;21.006;2023-03-24T11:50:54;8.03;;;6.67;;
16436;SDS011;8328;52.206;21.006;2023-03-24T11:53:24;10.00;;;6.87;;
16436;SDS011;8328;52.206;21.006;2023-03-24T12:01:44;9.70;;;6.37;;
16436;SDS011;8328;52.206;21.006;2023-03-24T12:04:26;10.53;;;6.27;;
16436;SDS011;8328;52.206;21.006;2023-03-24T12:09:45;9.20;;;6.37;;
16436;SDS011;8328;52.206;21.006;2023-03-24T12:15:36;7.17;;;5.37;;
16436;SDS011;8328;52.206;21.006;2023-03-24T12:23:56;6.40;;;4.73;;
16436;SDS011;8328;52.206;21.006;2023-03-24T12:26:27;8.20;;;4.97;;
16436;SDS011;8328;52.206;21.006;2023-03-24T12:31:30;6.73;;;4.87;;
16436;SDS011;8328;52.206;21.006;2023-03-24T12:39:03;8.47;;;4.70;;
16436;SDS011;8328;52.206;21.006;2023-03-24T12:44:28;7.23;;;4.50;;
16436;SDS011;8328;52.206;21.006;2023-03-24T12:50:16;8.87;;;4.03;;
16436;SDS011;8328;52.206;21.006;2023-03-24T12:53:08;4.90;;;3.77;;
16436;SDS011;8328;52.206;21.006;2023-03-24T12:55:55;5.70;;;3.67;;
16436;SDS011;8328;52.206;21.006;2023-03-24T13:01:36;6.13;;;3.87;;
16436;SDS011;8328;52.206;21.006;2023-03-24T13:04:16;3.93;;;3.07;;
16436;SDS011;8328;52.206;21.006;2023-03-24T13:07:02;5.23;;;3.37;;
16436;SDS011;8328;52.206;21.006;2023-03-24T13:15:02;4.53;;;2.77;;
16436;SDS011;8328;52.206;21.006;2023-03-24T13:20:39;5.77;;;3.10;;
16436;SDS011;8328;52.206;21.006;2023-03-24T13:28:46;4.40;;;2.80;;
16436;SDS011;8328;52.206;21.006;2023-03-24T13:31:23;7.07;;;3.40;;
16436;SDS011;8328;52.206;21.006;2023-03-24T13:33:51;4.10;;;3.10;;
16436;SDS011;8328;52.206;21.006;2023-03-24T13:39:10;3.00;;;2.70;;
16436;SDS011;8328;52.206;21.006;2023-03-24T13:41:40;4.97;;;2.83;;
16436;SDS011;8328;52.206;21.006;2023-03-24T13:44:16;2.87;;;2.57;;
16436;SDS011;8328;52.206;21.006;2023-03-24T13:46:57;2.97;;;2.50;;
16436;SDS011;8328;52.206;21.006;2023-03-24T13:49:29;2.50;;;2.30;;
16436;SDS011;8328;52.206;21.006;2023-03-24T13:51:56;4.67;;;2.40;;
16436;SDS011;8328;52.206;21.006;2023-03-24T13:54:28;2.80;;;2.30;;
16436;SDS011;8328;52.206;21.006;2023-03-24T13:57:00;7.87;;;2.70;;
16436;SDS011;8328;52.206;21.006;2023-03-24T13:59:38;3.27;;;2.17;;
16436;SDS011;8328;52.206;21.006;2023-03-24T14:05:04;3.50;;;2.30;;
16436;SDS011;8328;52.206;21.006;2023-03-24T14:15:39;4.53;;;3.67;;
16436;SDS011;8328;52.206;21.006;2023-03-24T14:26:03;3.33;;;2.10;;
16436;SDS011;8328;52.206;21.006;2023-03-24T14:28:44;3.10;;;2.50;;
16436;SDS011;8328;52.206;21.006;2023-03-24T14:33:44;4.57;;;2.27;;
16436;SDS011;8328;52.206;21.006;2023-03-24T14:39:38;4.20;;;2.20;;
16436;SDS011;8328;52.206;21.006;2023-03-24T14:41:59;3.03;;;2.20;;
16436;SDS011;8328;52.206;21.006;2023-03-24T14:47:24;2.97;;;2.10;;
16436;SDS011;8328;52.206;21.006;2023-03-24T14:49:54;3.37;;;2.53;;
16436;SDS011;8328;52.206;21.006;2023-03-24T14:52:25;3.23;;;2.83;;
16436;SDS011;8328;52.206;21.006;2023-03-24T14:55:01;4.17;;;2.20;;
16436;SDS011;8328;52.206;21.006;2023-03-24T14:57:37;2.87;;;2.20;;
16436;SDS011;8328;52.206;21.006;2023-03-24T15:00:16;4.03;;;2.20;;
16436;SDS011;8328;52.206;21.006;2023-03-24T15:02:44;6.27;;;2.40;;
16436;SDS011;8328;52.206;21.006;2023-03-24T15:05:21;2.53;;;1.93;;
16436;SDS011;8328;52.206;21.006;2023-03-24T15:10:24;2.67;;;2.10;;
16436;SDS011;8328;52.206;21.006;2023-03-24T15:12:55;4.57;;;2.10;;
16436;SDS011;8328;52.206;21.006;2023-03-24T15:15:22;3.27;;;2.10;;
16436;SDS011;8328;52.206;21.006;2023-03-24T15:17:49;4.83;;;2.37;;
16436;SDS011;8328;52.206;21.006;2023-03-24T15:23:03;2.87;;;2.30;;
16436;SDS011;8328;52.206;21.006;2023-03-24T15:25:32;3.90;;;2.37;;
16436;SDS011;8328;52.206;21.006;2023-03-24T15:28:08;4.03;;;2.10;;
16436;SDS011;8328;52.206;21.006;2023-03-24T15:30:48;3.60;;;2.10;;
16436;SDS011;8328;52.206;21.006;2023-03-24T15:33:15;4.40;;;2.37;;
16436;SDS011;8328;52.206;21.006;2023-03-24T15:35:42;2.10;;;1.90;;
16436;SDS011;8328;52.206;21.006;2023-03-24T15:38:20;2.83;;;2.10;;
16436;SDS011;8328;52.206;21.006;2023-03-24T15:41:02;6.30;;;2.50;;
16436;SDS011;8328;52.206;21.006;2023-03-24T15:43:40;4.37;;;2.23;;
16436;SDS011;8328;52.206;21.006;2023-03-24T15:46:22;4.97;;;2.73;;
16436;SDS011;8328;52.206;21.006;2023-03-24T15:48:50;4.00;;;2.20;;
16436;SDS011;8328;52.206;21.006;2023-03-24T15:51:17;6.67;;;2.63;;
16436;SDS011;8328;52.206;21.006;2023-03-24T15:53:45;3.53;;;2.63;;
16436;SDS011;8328;52.206;21.006;2023-03-24T15:56:31;3.27;;;2.20;;
16436;SDS011;8328;52.206;21.006;2023-03-24T16:01:30;3.73;;;2.63;;
16436;SDS011;8328;52.206;21.006;2023-03-24T16:04:00;4.80;;;2.87;;
16436;SDS011;8328;52.206;21.006;2023-03-24T16:06:32;4.50;;;2.83;;
16436;SDS011;8328;52.206;21.006;2023-03-24T16:08:59;5.20;;;2.70;;
16436;SDS011;8328;52.206;21.006;2023-03-24T16:11:32;3.50;;;3.00;;
16436;SDS011;8328;52.206;21.006;2023-03-24T16:13:58;4.70;;;4.23;;
16436;SDS011;8328;52.206;21.006;2023-03-24T16:16:26;5.93;;;3.63;;
16436;SDS011;8328;52.206;21.006;2023-03-24T16:18:53;5.50;;;3.67;;
16436;SDS011;8328;52.206;21.006;2023-03-24T16:21:27;5.00;;;4.00;;
16436;SDS011;8328;52.206;21.006;2023-03-24T16:23:54;4.73;;;3.30;;
16436;SDS011;8328;52.206;21.006;2023-03-24T16:26:22;5.57;;;3.40;;
16436;SDS011;8328;52.206;21.006;2023-03-24T16:28:53;6.03;;;3.40;;
16436;SDS011;8328;52.206;21.006;2023-03-24T16:31:25;5.73;;;3.90;;
16436;SDS011;8328;52.206;21.006;2023-03-24T16:33:56;4.57;;;3.43;;
16436;SDS011;8328;52.206;21.006;2023-03-24T16:36:23;4.93;;;3.33;;
16436;SDS011;8328;52.206;21.006;2023-03-24T16:38:53;4.90;;;3.07;;
16436;SDS011;8328;52.206;21.006;2023-03-24T16:41:20;5.13;;;3.60;;
16436;SDS011;8328;52.206;21.006;2023-03-24T16:43:46;6.20;;;4.00;;
16436;SDS011;8328;52.206;21.006;2023-03-24T16:46:13;5.13;;;4.17;;
16436;SDS011;8328;52.206;21.006;2023-03-24T16:48:53;5.33;;;4.00;;
16436;SDS011;8328;52.206;21.006;2023-03-24T16:51:19;4.73;;;4.23;;
16436;SDS011;8328;52.206;21.006;2023-03-24T16:53:46;5.23;;;4.20;;
16436;SDS011;8328;52.206;21.006;2023-03-24T16:56:12;6.13;;;4.30;;
16436;SDS011;8328;52.206;21.006;2023-03-24T16:58:40;4.80;;;4.30;;
16436;SDS011;8328;52.206;21.006;2023-03-24T17:01:13;6.47;;;4.50;;
16436;SDS011;8328;52.206;21.006;2023-03-24T17:04:05;4.90;;;4.10;;
16436;SDS011;8328;52.206;21.006;2023-03-24T17:06:40;5.87;;;4.70;;
16436;SDS011;8328;52.206;21.006;2023-03-24T17:09:07;7.03;;;4.43;;
16436;SDS011;8328;52.206;21.006;2023-03-24T17:11:37;6.43;;;4.27;;
16436;SDS011;8328;52.206;21.006;2023-03-24T17:14:14;9.33;;;5.67;;
16436;SDS011;8328;52.206;21.006;2023-03-24T17:16:41;8.63;;;5.60;;
16436;SDS011;8328;52.206;21.006;2023-03-24T17:19:09;9.60;;;5.70;;
16436;SDS011;8328;52.206;21.006;2023-03-24T17:21:37;11.20;;;6.27;;
16436;SDS011;8328;52.206;21.006;2023-03-24T17:24:06;8.47;;;6.63;;